createdAt,value
2023-05-12T00:00:05.776Z,22.24
2023-05-12T00:01:05.834Z,22.23
2023-05-12T00:02:05.893Z,22.22
2023-05-12T00:03:06.081Z,22.23
2023-05-12T00:04:06.151Z,22.23
2023-05-12T00:05:06.123Z,22.23
2023-05-12T00:06:06.274Z,22.22
2023-05-12T00:07:06.264Z,22.22
2023-05-12T00:08:06.332Z,22.23
2023-05-12T00:09:06.407Z,22.22
2023-05-12T00:10:06.485Z,22.21
2023-05-12T00:11:06.540Z,22.22
2023-05-12T00:12:06.590Z,22.22
2023-05-12T00:13:06.651Z,22.22
2023-05-12T00:14:06.714Z,22.22
2023-05-12T00:15:06.792Z,22.22
2023-05-12T00:16:06.999Z,22.22
2023-05-12T00:17:06.908Z,22.22
2023-05-12T00:18:07.050Z,22.21
2023-05-12T00:19:07.085Z,22.22
2023-05-12T00:20:07.173Z,22.21
2023-05-12T00:21:07.193Z,22.22
2023-05-12T00:22:07.256Z,22.22
2023-05-12T00:23:07.329Z,22.21
2023-05-12T00:24:07.397Z,22.21
2023-05-12T00:25:07.457Z,22.21
2023-05-12T00:26:07.513Z,22.21
2023-05-12T00:27:07.562Z,22.21
2023-05-12T00:28:07.629Z,22.21
2023-05-12T00:29:07.701Z,22.21
2023-05-12T00:30:07.738Z,22.21
2023-05-12T00:31:07.825Z,22.20
2023-05-12T00:32:07.837Z,22.20
2023-05-12T00:33:07.914Z,22.20
2023-05-12T00:34:07.970Z,22.20
2023-05-12T00:35:08.042Z,22.20
2023-05-12T00:36:08.110Z,22.20
2023-05-12T00:37:08.150Z,22.20
2023-05-12T00:38:08.196Z,22.20
2023-05-12T00:39:08.231Z,22.20
2023-05-12T00:40:08.261Z,22.19
2023-05-12T00:41:08.303Z,22.19
2023-05-12T00:42:08.347Z,22.20
2023-05-12T00:43:08.361Z,22.19
2023-05-12T00:44:08.406Z,22.19
2023-05-12T00:45:08.442Z,22.19
2023-05-12T00:46:08.511Z,22.20
2023-05-12T00:47:08.523Z,22.19
2023-05-12T00:48:08.593Z,22.19
2023-05-12T00:49:09.254Z,22.19
2023-05-12T00:50:08.686Z,22.19
2023-05-12T00:51:08.722Z,22.19
2023-05-12T00:52:08.769Z,22.19
2023-05-12T00:53:08.803Z,22.19
2023-05-12T00:54:08.876Z,22.19
2023-05-12T00:55:08.924Z,22.18
2023-05-12T00:56:08.962Z,22.19
2023-05-12T00:57:08.986Z,22.18
2023-05-12T00:58:09.010Z,22.17
2023-05-12T00:59:09.138Z,22.18
2023-05-12T01:00:09.079Z,22.17
2023-05-12T01:01:09.128Z,22.18
2023-05-12T01:02:09.176Z,22.17
2023-05-12T01:03:09.256Z,22.18
2023-05-12T01:04:09.206Z,22.17
2023-05-12T01:05:09.221Z,22.17
2023-05-12T01:06:09.248Z,22.18
2023-05-12T01:07:09.277Z,22.18
2023-05-12T01:08:09.397Z,22.17
2023-05-12T01:09:09.347Z,22.17
2023-05-12T01:10:09.385Z,22.17
2023-05-12T01:11:09.414Z,22.18
2023-05-12T01:12:09.445Z,22.17
2023-05-12T01:13:09.502Z,22.17
2023-05-12T01:14:09.545Z,22.18
2023-05-12T01:15:09.602Z,22.17
2023-05-12T01:16:09.651Z,22.17
2023-05-12T01:17:09.750Z,22.17
2023-05-12T01:18:09.825Z,22.16
2023-05-12T01:19:09.924Z,22.16
2023-05-12T01:20:09.897Z,22.16
2023-05-12T01:21:09.944Z,22.16
2023-05-12T01:22:10.027Z,22.16
2023-05-12T01:23:10.093Z,22.16
2023-05-12T01:24:10.161Z,22.16
2023-05-12T01:25:10.220Z,22.16
2023-05-12T01:26:10.300Z,22.16
2023-05-12T01:27:10.365Z,22.16
2023-05-12T01:28:10.442Z,22.16
2023-05-12T01:29:10.499Z,22.15
2023-05-12T01:30:10.567Z,22.15
2023-05-12T01:31:11.449Z,22.15
2023-05-12T01:32:10.708Z,22.15
2023-05-12T01:33:10.777Z,22.15
2023-05-12T01:34:10.836Z,22.15
2023-05-12T01:35:10.909Z,22.15
2023-05-12T01:36:10.971Z,22.15
2023-05-12T01:37:11.150Z,22.15
2023-05-12T01:38:11.098Z,22.15
2023-05-12T01:39:11.098Z,22.15
2023-05-12T01:40:11.175Z,22.15
2023-05-12T01:41:11.221Z,22.15
2023-05-12T01:42:11.304Z,22.14
2023-05-12T01:43:11.331Z,22.14
2023-05-12T01:44:11.368Z,22.14
2023-05-12T01:45:11.412Z,22.14
2023-05-12T01:46:11.556Z,22.14
2023-05-12T01:47:11.529Z,22.14
2023-05-12T01:48:11.589Z,22.14
2023-05-12T01:49:11.658Z,22.14
2023-05-12T01:50:11.712Z,22.14
2023-05-12T01:51:11.768Z,22.14
2023-05-12T01:52:11.788Z,22.14
2023-05-12T01:53:12.019Z,22.14
2023-05-12T01:54:11.897Z,22.14
2023-05-12T01:55:11.943Z,22.13
2023-05-12T01:56:11.972Z,22.14
2023-05-12T01:57:12.030Z,22.13
2023-05-12T01:58:12.080Z,22.13
2023-05-12T01:59:12.132Z,22.14
2023-05-12T02:00:12.143Z,22.13
2023-05-12T02:01:12.173Z,22.14
2023-05-12T02:02:12.862Z,22.13
2023-05-12T02:03:12.359Z,22.13
2023-05-12T02:04:12.500Z,22.13
2023-05-12T02:05:12.312Z,22.13
2023-05-12T02:06:12.497Z,22.12
2023-05-12T02:07:12.379Z,22.13
2023-05-12T02:08:12.389Z,22.13
2023-05-12T02:09:12.403Z,22.12
2023-05-12T02:10:12.454Z,22.12
2023-05-12T02:11:12.525Z,22.12
2023-05-12T02:12:12.594Z,22.12
2023-05-12T02:13:12.625Z,22.12
2023-05-12T02:14:12.649Z,22.12
2023-05-12T02:15:12.677Z,22.12
2023-05-12T02:16:12.740Z,22.12
2023-05-12T02:17:12.749Z,22.12
2023-05-12T02:18:12.775Z,22.12
2023-05-12T02:19:12.816Z,22.12
2023-05-12T02:20:13.781Z,22.12
2023-05-12T02:21:12.874Z,22.12
2023-05-12T02:22:12.912Z,22.11
2023-05-12T02:23:12.935Z,22.11
2023-05-12T02:24:14.780Z,22.11
2023-05-12T02:25:12.973Z,22.11
2023-05-12T02:26:13.005Z,22.11
2023-05-12T02:27:13.020Z,22.11
2023-05-12T02:28:13.062Z,22.11
2023-05-12T02:29:13.071Z,22.11
2023-05-12T02:30:13.109Z,22.10
2023-05-12T02:31:13.799Z,22.11
2023-05-12T02:32:13.205Z,22.10
2023-05-12T02:33:13.276Z,22.10
2023-05-12T02:34:13.223Z,22.10
2023-05-12T02:35:13.238Z,22.10
2023-05-12T02:36:13.270Z,22.10
2023-05-12T02:37:13.288Z,22.10
2023-05-12T02:38:13.336Z,22.10
2023-05-12T02:39:13.370Z,22.09
2023-05-12T02:40:13.399Z,22.10
2023-05-12T02:41:13.455Z,22.09
2023-05-12T02:42:13.477Z,22.10
2023-05-12T02:43:15.230Z,22.09
2023-05-12T02:44:13.550Z,22.10
2023-05-12T02:45:13.618Z,22.09
2023-05-12T02:46:13.760Z,22.09
2023-05-12T02:47:13.673Z,22.09
2023-05-12T02:48:13.699Z,22.09
2023-05-12T02:49:13.749Z,22.09
2023-05-12T02:50:13.782Z,22.09
2023-05-12T02:51:13.845Z,22.09
2023-05-12T02:52:13.880Z,22.09
2023-05-12T02:53:13.929Z,22.09
2023-05-12T02:54:13.966Z,22.09
2023-05-12T02:55:14.966Z,22.08
2023-05-12T02:56:14.107Z,22.09
2023-05-12T02:57:14.056Z,22.08
2023-05-12T02:58:14.091Z,22.08
2023-05-12T02:59:14.148Z,22.08
2023-05-12T03:00:14.139Z,22.08
2023-05-12T03:01:14.239Z,22.07
2023-05-12T03:02:14.302Z,22.08
2023-05-12T03:03:15.534Z,22.09
2023-05-12T03:04:14.289Z,22.08
2023-05-12T03:05:14.312Z,22.08
2023-05-12T03:06:14.345Z,22.07
2023-05-12T03:07:14.376Z,22.07
2023-05-12T03:08:14.405Z,22.08
2023-05-12T03:09:14.423Z,22.07
2023-05-12T03:10:14.467Z,22.08
2023-05-12T03:11:14.489Z,22.07
2023-05-12T03:12:14.542Z,22.07
2023-05-12T03:13:14.559Z,22.08
2023-05-12T03:14:14.756Z,22.08
2023-05-12T03:15:14.636Z,22.07
2023-05-12T03:16:14.664Z,22.07
2023-05-12T03:17:14.711Z,22.07
2023-05-12T03:18:14.717Z,22.07
2023-05-12T03:19:14.756Z,22.07
2023-05-12T03:20:14.766Z,22.07
2023-05-12T03:21:14.916Z,22.07
2023-05-12T03:22:14.858Z,22.06
2023-05-12T03:23:14.861Z,22.07
2023-05-12T03:24:15.009Z,22.07
2023-05-12T03:25:14.922Z,22.06
2023-05-12T03:26:14.956Z,22.06
2023-05-12T03:27:14.966Z,22.06
2023-05-12T03:28:15.016Z,22.06
2023-05-12T03:29:15.035Z,22.06
2023-05-12T03:30:15.056Z,22.07
2023-05-12T03:31:15.125Z,22.06
2023-05-12T03:32:15.136Z,22.06
2023-05-12T03:33:15.128Z,22.05
2023-05-12T03:34:15.904Z,22.05
2023-05-12T03:35:15.183Z,22.06
2023-05-12T03:36:15.210Z,22.06
2023-05-12T03:37:15.227Z,22.05
2023-05-12T03:38:15.244Z,22.05
2023-05-12T03:39:15.305Z,22.06
2023-05-12T03:40:15.310Z,22.06
2023-05-12T03:41:15.323Z,22.06
2023-05-12T03:42:15.351Z,22.05
2023-05-12T03:43:15.390Z,22.06
2023-05-12T03:44:16.277Z,22.05
2023-05-12T03:45:15.481Z,22.05
2023-05-12T03:46:15.574Z,22.05
2023-05-12T03:47:15.605Z,22.05
2023-05-12T03:48:15.550Z,22.05
2023-05-12T03:49:15.536Z,22.04
2023-05-12T03:50:15.579Z,22.05
2023-05-12T03:51:15.600Z,22.05
2023-05-12T03:52:15.653Z,22.05
2023-05-12T03:53:15.660Z,22.04
2023-05-12T03:54:15.827Z,22.04
2023-05-12T03:55:15.717Z,22.04
2023-05-12T03:56:15.760Z,22.04
2023-05-12T03:57:15.770Z,22.04
2023-05-12T03:58:15.805Z,22.04
2023-05-12T03:59:15.842Z,22.04
2023-05-12T04:00:15.877Z,22.05
2023-05-12T04:01:15.895Z,22.04
2023-05-12T04:02:15.964Z,22.03
2023-05-12T04:03:15.977Z,22.04
2023-05-12T04:04:16.019Z,22.04
2023-05-12T04:05:15.988Z,22.04
2023-05-12T04:06:16.017Z,22.04
2023-05-12T04:07:16.043Z,22.04
2023-05-12T04:08:16.088Z,22.03
2023-05-12T04:09:16.135Z,22.03
2023-05-12T04:10:16.179Z,22.03
2023-05-12T04:11:16.227Z,22.04
2023-05-12T04:12:16.282Z,22.02
2023-05-12T04:13:16.315Z,22.02
2023-05-12T04:14:16.391Z,22.03
2023-05-12T04:15:16.395Z,22.03
2023-05-12T04:16:16.646Z,22.04
2023-05-12T04:17:16.491Z,22.03
2023-05-12T04:18:16.523Z,22.04
2023-05-12T04:19:16.554Z,22.02
2023-05-12T04:20:16.591Z,22.02
2023-05-12T04:21:16.625Z,22.03
2023-05-12T04:22:16.672Z,22.02
2023-05-12T04:23:16.720Z,22.03
2023-05-12T04:24:17.407Z,22.03
2023-05-12T04:25:16.783Z,22.03
2023-05-12T04:26:16.829Z,22.02
2023-05-12T04:27:16.882Z,22.03
2023-05-12T04:28:16.910Z,22.02
2023-05-12T04:29:16.958Z,22.02
2023-05-12T04:30:17.018Z,22.02
2023-05-12T04:31:17.030Z,22.02
2023-05-12T04:32:17.110Z,22.02
2023-05-12T04:33:17.090Z,22.03
2023-05-12T04:34:17.131Z,22.03
2023-05-12T04:35:17.171Z,22.02
2023-05-12T04:36:17.223Z,22.02
2023-05-12T04:37:17.266Z,22.02
2023-05-12T04:38:17.282Z,22.02
2023-05-12T04:39:17.346Z,22.02
2023-05-12T04:40:17.432Z,22.02
2023-05-12T04:41:17.413Z,22.02
2023-05-12T04:42:18.497Z,22.02
2023-05-12T04:44:17.486Z,22.03
2023-05-12T04:45:17.623Z,22.02
2023-05-12T04:46:17.544Z,22.02
2023-05-12T04:47:17.491Z,22.02
2023-05-12T04:48:18.482Z,22.02
2023-05-12T04:49:17.478Z,22.02
2023-05-12T04:50:17.471Z,22.02
2023-05-12T04:51:17.472Z,22.02
2023-05-12T04:52:17.483Z,22.02
2023-05-12T04:53:17.475Z,22.01
2023-05-12T04:54:17.489Z,22.02
2023-05-12T04:55:17.496Z,22.02
2023-05-12T04:56:17.463Z,22.02
2023-05-12T04:57:17.525Z,22.02
2023-05-12T04:58:17.478Z,22.02
2023-05-12T04:59:17.474Z,22.02
2023-05-12T05:00:17.480Z,22.02
2023-05-12T05:01:17.503Z,22.01
2023-05-12T05:02:17.494Z,22.02
2023-05-12T05:03:17.626Z,22.02
2023-05-12T05:04:17.494Z,22.02
2023-05-12T05:05:18.557Z,22.02
2023-05-12T05:06:17.470Z,22.01
2023-05-12T05:07:17.475Z,22.01
2023-05-12T05:08:17.470Z,22.02
2023-05-12T05:09:17.483Z,22.02
2023-05-12T05:10:17.467Z,22.02
2023-05-12T05:11:17.464Z,22.02
2023-05-12T05:12:17.479Z,22.02
2023-05-12T05:13:17.515Z,22.02
2023-05-12T05:14:17.463Z,22.02
2023-05-12T05:15:17.694Z,22.03
2023-05-12T05:16:17.529Z,22.03
2023-05-12T05:17:17.466Z,22.02
2023-05-12T05:18:17.451Z,22.02
2023-05-12T05:19:23.293Z,22.04
2023-05-12T05:20:19.810Z,22.04
2023-05-12T05:21:17.514Z,22.05
2023-05-12T05:22:17.584Z,22.06
2023-05-12T05:23:17.632Z,21.97
2023-05-12T05:24:17.686Z,21.83
2023-05-12T05:25:17.840Z,21.72
2023-05-12T05:26:17.848Z,21.60
2023-05-12T05:27:17.743Z,21.58
2023-05-12T05:28:17.763Z,21.60
2023-05-12T05:29:17.827Z,21.65
2023-05-12T05:30:17.820Z,21.71
2023-05-12T05:31:18.745Z,21.78
2023-05-12T05:32:17.899Z,21.85
2023-05-12T05:33:17.874Z,21.93
2023-05-12T05:34:17.972Z,21.99
2023-05-12T05:35:18.100Z,22.05
2023-05-12T05:36:18.025Z,22.13
2023-05-12T05:37:18.055Z,22.19
2023-05-12T05:38:18.123Z,22.25
2023-05-12T05:39:18.181Z,22.31
2023-05-12T05:40:18.248Z,22.37
2023-05-12T05:41:18.301Z,22.42
2023-05-12T05:42:18.344Z,22.48
2023-05-12T05:43:18.390Z,22.53
2023-05-12T05:44:18.439Z,22.58
2023-05-12T05:45:18.815Z,22.62
2023-05-12T05:46:18.513Z,22.67
2023-05-12T05:47:18.530Z,22.72
2023-05-12T05:48:18.556Z,22.77
2023-05-12T05:49:18.557Z,22.80
2023-05-12T05:50:18.578Z,22.83
2023-05-12T05:51:18.608Z,22.87
2023-05-12T05:52:18.606Z,22.89
2023-05-12T05:53:18.622Z,22.91
2023-05-12T05:54:18.623Z,22.93
2023-05-12T05:55:18.848Z,22.94
2023-05-12T05:56:18.648Z,22.91
2023-05-12T05:57:18.669Z,22.73
2023-05-12T05:58:18.724Z,22.42
2023-05-12T05:59:18.774Z,22.20
2023-05-12T06:00:18.816Z,22.14
2023-05-12T06:01:18.952Z,22.12
2023-05-12T06:02:18.963Z,22.16
2023-05-12T06:03:19.016Z,22.23
2023-05-12T06:04:19.226Z,22.29
2023-05-12T06:05:19.302Z,22.35
2023-05-12T06:06:19.161Z,22.41
2023-05-12T06:07:21.010Z,22.47
2023-05-12T06:08:19.247Z,22.53
2023-05-12T06:09:19.180Z,22.59
2023-05-12T06:10:19.316Z,22.66
2023-05-12T06:11:19.151Z,22.72
2023-05-12T06:12:19.164Z,22.77
2023-05-12T06:13:19.129Z,22.82
2023-05-12T06:14:19.118Z,22.87
2023-05-12T06:15:19.249Z,22.91
2023-05-12T06:16:19.133Z,22.95
2023-05-12T06:17:19.138Z,22.98
2023-05-12T06:18:19.782Z,23.02
2023-05-12T06:19:19.039Z,23.05
2023-05-12T06:20:19.053Z,23.07
2023-05-12T06:21:19.044Z,23.10
2023-05-12T06:22:19.008Z,23.13
2023-05-12T06:23:19.003Z,23.16
2023-05-12T06:24:18.962Z,23.17
2023-05-12T06:25:19.101Z,23.09
2023-05-12T06:26:18.955Z,22.93
2023-05-12T06:27:18.953Z,22.81
2023-05-12T06:28:18.956Z,22.79
2023-05-12T06:29:18.929Z,22.81
2023-05-12T06:30:18.927Z,22.85
2023-05-12T06:31:18.980Z,22.88
2023-05-12T06:32:19.010Z,22.92
2023-05-12T06:33:18.897Z,22.97
2023-05-12T06:34:18.876Z,23.00
2023-05-12T06:35:19.084Z,23.05
2023-05-12T06:36:18.852Z,23.08
2023-05-12T06:37:18.851Z,23.12
2023-05-12T06:38:19.820Z,23.15
2023-05-12T06:39:18.823Z,23.18
2023-05-12T06:40:18.815Z,23.21
2023-05-12T06:41:19.324Z,23.24
2023-05-12T06:42:18.795Z,23.27
2023-05-12T06:43:18.794Z,23.30
2023-05-12T06:44:18.769Z,23.33
2023-05-12T06:45:18.991Z,23.34
2023-05-12T06:46:18.750Z,23.37
2023-05-12T06:47:18.729Z,23.39
2023-05-12T06:48:18.730Z,23.41
2023-05-12T06:49:18.713Z,23.44
2023-05-12T06:50:18.705Z,23.48
2023-05-12T06:51:18.704Z,23.50
2023-05-12T06:52:18.686Z,23.52
2023-05-12T06:53:18.685Z,23.52
2023-05-12T06:54:18.690Z,23.55
2023-05-12T06:55:18.829Z,23.58
2023-05-12T06:56:18.636Z,23.61
2023-05-12T06:57:18.630Z,23.67
2023-05-12T06:58:18.624Z,23.71
2023-05-12T06:59:20.757Z,23.75
2023-05-12T07:00:18.606Z,23.78
2023-05-12T07:01:18.605Z,23.82
2023-05-12T07:02:18.564Z,23.87
2023-05-12T07:03:18.592Z,23.91
2023-05-12T07:04:19.329Z,23.95
2023-05-12T07:05:19.022Z,23.98
2023-05-12T07:06:18.537Z,24.02
2023-05-12T07:07:18.460Z,24.06
2023-05-12T07:08:18.440Z,24.08
2023-05-12T07:09:19.329Z,24.10
2023-05-12T07:10:18.401Z,24.14
2023-05-12T07:11:18.371Z,24.17
2023-05-12T07:12:18.358Z,24.20
2023-05-12T07:13:18.339Z,24.24
2023-05-12T07:14:18.300Z,24.27
2023-05-12T07:15:18.727Z,24.30
2023-05-12T07:16:18.275Z,24.35
2023-05-12T07:17:18.218Z,24.38
2023-05-12T07:18:18.214Z,24.41
2023-05-12T07:19:18.186Z,24.43
2023-05-12T07:20:18.165Z,24.43
2023-05-12T07:21:18.141Z,24.44
2023-05-12T07:22:18.123Z,24.41
2023-05-12T07:23:19.757Z,24.39
2023-05-12T07:24:18.073Z,24.35
2023-05-12T07:25:18.277Z,24.33
2023-05-12T07:26:18.201Z,24.31
2023-05-12T07:27:17.990Z,24.27
2023-05-12T07:28:17.975Z,24.24
2023-05-12T07:29:18.031Z,24.23
2023-05-12T07:30:17.936Z,24.22
2023-05-12T07:31:17.917Z,24.22
2023-05-12T07:32:17.917Z,24.20
2023-05-12T07:33:17.862Z,24.20
2023-05-12T07:34:17.843Z,24.19
2023-05-12T07:35:17.961Z,24.18
2023-05-12T07:36:18.294Z,24.17
2023-05-12T07:37:17.786Z,24.17
2023-05-12T07:38:17.785Z,24.17
2023-05-12T07:39:17.740Z,24.15
2023-05-12T07:40:17.726Z,24.14
2023-05-12T07:41:20.343Z,24.14
2023-05-12T07:42:17.942Z,24.14
2023-05-12T07:43:17.934Z,24.15
2023-05-12T07:44:17.948Z,24.15
2023-05-12T07:45:19.324Z,24.13
2023-05-12T07:46:18.057Z,24.13
2023-05-12T07:47:18.011Z,24.13
2023-05-12T07:48:17.947Z,24.12
2023-05-12T07:49:17.954Z,24.12
2023-05-12T07:50:17.935Z,24.12
2023-05-12T07:51:17.944Z,24.12
2023-05-12T07:52:17.944Z,24.12
2023-05-12T07:53:18.850Z,24.11
2023-05-12T07:54:17.992Z,24.11
2023-05-12T07:55:18.005Z,24.09
2023-05-12T07:56:17.957Z,24.10
2023-05-12T07:57:17.977Z,24.10
2023-05-12T07:58:18.000Z,24.10
2023-05-12T07:59:17.984Z,24.10
2023-05-12T08:00:17.998Z,24.10
2023-05-12T08:01:17.988Z,24.11
2023-05-12T08:02:18.024Z,24.10
2023-05-12T08:03:18.055Z,24.10
2023-05-12T08:04:18.024Z,24.10
2023-05-12T08:05:18.323Z,24.10
2023-05-12T08:06:18.032Z,24.11
2023-05-12T08:07:18.330Z,24.13
2023-05-12T08:08:18.002Z,24.14
2023-05-12T08:09:18.001Z,24.18
2023-05-12T08:10:18.003Z,24.20
2023-05-12T08:11:17.984Z,24.23
2023-05-12T08:12:17.976Z,24.23
2023-05-12T08:13:17.979Z,24.24
2023-05-12T08:14:17.968Z,24.26
2023-05-12T08:15:18.160Z,24.30
2023-05-12T08:16:18.006Z,24.34
2023-05-12T08:17:17.943Z,24.37
2023-05-12T08:18:17.938Z,24.39
2023-05-12T08:19:17.906Z,24.42
2023-05-12T08:20:17.864Z,24.44
2023-05-12T08:21:17.852Z,24.44
2023-05-12T08:22:17.853Z,24.41
2023-05-12T08:23:17.824Z,24.37
2023-05-12T08:24:17.813Z,24.35
2023-05-12T08:25:17.958Z,24.31
2023-05-12T08:26:17.796Z,24.31
2023-05-12T08:27:19.367Z,24.29
2023-05-12T08:28:17.795Z,24.25
2023-05-12T08:29:17.815Z,24.21
2023-05-12T08:30:17.809Z,24.17
2023-05-12T08:31:17.849Z,24.12
2023-05-12T08:32:17.812Z,24.08
2023-05-12T08:33:17.842Z,24.08
2023-05-12T08:34:17.835Z,24.05
2023-05-12T08:35:17.905Z,24.04
2023-05-12T08:36:17.872Z,24.03
2023-05-12T08:37:17.894Z,24.01
2023-05-12T08:38:17.928Z,23.98
2023-05-12T08:39:17.945Z,23.94
2023-05-12T08:40:18.021Z,23.91
2023-05-12T08:41:18.029Z,23.88
2023-05-12T08:42:18.050Z,23.86
2023-05-12T08:43:18.078Z,23.84
2023-05-12T08:44:18.105Z,23.83
2023-05-12T08:45:18.264Z,23.81
2023-05-12T08:46:18.207Z,23.80
2023-05-12T08:47:18.220Z,23.80
2023-05-12T08:48:18.264Z,23.78
2023-05-12T08:49:18.307Z,23.78
2023-05-12T08:50:18.353Z,23.77
2023-05-12T08:51:18.391Z,23.75
2023-05-12T08:52:18.439Z,23.74
2023-05-12T08:53:18.497Z,23.75
2023-05-12T08:54:18.557Z,23.76
2023-05-12T08:55:18.719Z,23.76
2023-05-12T08:57:18.614Z,23.78
2023-05-12T08:58:20.067Z,23.78
2023-05-12T08:59:18.593Z,23.75
2023-05-12T09:00:18.759Z,23.74
2023-05-12T09:01:18.667Z,23.73
2023-05-12T09:02:18.654Z,23.73
2023-05-12T09:03:18.562Z,23.74
2023-05-12T09:04:18.599Z,23.75
2023-05-12T09:05:18.692Z,23.74
2023-05-12T09:06:18.526Z,23.74
2023-05-12T09:07:18.506Z,23.76
2023-05-12T09:08:18.506Z,23.77
2023-05-12T09:09:18.484Z,23.78
2023-05-12T09:10:32.988Z,23.79
2023-05-12T09:11:20.305Z,23.80
2023-05-12T09:12:18.476Z,23.80
2023-05-12T09:13:18.515Z,23.80
2023-05-12T09:14:18.404Z,23.81
2023-05-12T09:15:18.665Z,23.81
2023-05-12T09:16:18.410Z,23.82
2023-05-12T09:17:18.347Z,23.83
2023-05-12T09:18:18.881Z,23.83
2023-05-12T09:19:18.329Z,23.84
2023-05-12T09:20:30.518Z,23.85
2023-05-12T09:21:19.282Z,23.86
2023-05-12T09:22:18.260Z,23.87
2023-05-12T09:23:18.229Z,23.88
2023-05-12T09:24:18.217Z,23.90
2023-05-12T09:25:18.316Z,23.91
2023-05-12T09:26:18.196Z,23.92
2023-05-12T09:27:18.192Z,23.93
2023-05-12T09:28:18.153Z,23.94
2023-05-12T09:29:30.020Z,23.95
2023-05-12T09:30:19.224Z,23.95
2023-05-12T09:31:18.143Z,23.96
2023-05-12T09:32:18.077Z,23.97
2023-05-12T09:33:18.061Z,23.98
2023-05-12T09:34:18.042Z,23.98
2023-05-12T09:35:18.106Z,23.99
2023-05-12T09:36:18.001Z,23.99
2023-05-12T09:37:17.993Z,24.00
2023-05-12T09:38:17.973Z,24.00
2023-05-12T09:39:17.955Z,24.01
2023-05-12T09:40:18.918Z,24.02
2023-05-12T09:41:17.913Z,24.02
2023-05-12T09:42:17.892Z,24.02
2023-05-12T09:43:17.880Z,24.03
2023-05-12T09:44:17.859Z,24.03
2023-05-12T09:45:18.144Z,24.04
2023-05-12T09:46:17.924Z,24.04
2023-05-12T09:47:17.872Z,24.04
2023-05-12T09:48:17.884Z,24.04
2023-05-12T09:49:17.885Z,24.05
2023-05-12T09:50:17.887Z,24.04
2023-05-12T09:51:17.891Z,24.05
2023-05-12T09:52:17.896Z,24.05
2023-05-12T09:53:17.983Z,24.05
2023-05-12T09:54:17.923Z,24.04
2023-05-12T09:55:18.141Z,24.05
2023-05-12T09:56:17.951Z,24.05
2023-05-12T09:57:17.981Z,24.05
2023-05-12T09:58:17.996Z,24.05
2023-05-12T09:59:17.980Z,24.06
2023-05-12T10:00:33.147Z,24.05
2023-05-12T10:01:23.303Z,24.05
2023-05-12T10:02:17.994Z,24.05
2023-05-12T10:03:18.012Z,24.04
2023-05-12T10:04:17.944Z,24.05
2023-05-12T10:05:18.010Z,24.06
2023-05-12T10:06:17.886Z,24.05
2023-05-12T10:07:18.117Z,24.05
2023-05-12T10:08:17.842Z,24.05
2023-05-12T10:09:18.830Z,24.04
2023-05-12T10:10:17.844Z,24.05
2023-05-12T10:11:17.815Z,24.04
2023-05-12T10:12:17.752Z,24.04
2023-05-12T10:13:17.714Z,24.04
2023-05-12T10:14:17.710Z,24.06
2023-05-12T10:15:17.849Z,24.02
2023-05-12T10:16:17.748Z,23.94
2023-05-12T10:17:17.745Z,23.89
2023-05-12T10:18:17.669Z,23.84
2023-05-12T10:19:18.404Z,23.82
2023-05-12T10:20:17.624Z,23.79
2023-05-12T10:21:17.605Z,23.77
2023-05-12T10:22:17.639Z,23.75
2023-05-12T10:23:17.677Z,23.73
2023-05-12T10:24:17.743Z,23.68
2023-05-12T10:25:17.972Z,23.67
2023-05-12T10:26:17.845Z,23.64
2023-05-12T10:27:17.908Z,23.64
2023-05-12T10:28:17.964Z,23.61
2023-05-12T10:29:17.999Z,23.57
2023-05-12T10:30:18.066Z,23.53
2023-05-12T10:31:19.033Z,23.48
2023-05-12T10:32:17.987Z,23.45
2023-05-12T10:33:17.970Z,23.43
2023-05-12T10:34:17.944Z,23.39
2023-05-12T10:35:19.190Z,23.37
2023-05-12T10:36:17.920Z,23.34
2023-05-12T10:37:18.837Z,23.31
2023-05-12T10:38:17.895Z,23.30
2023-05-12T10:39:17.903Z,23.30
2023-05-12T10:40:17.887Z,23.31
2023-05-12T10:41:17.868Z,23.31
2023-05-12T10:42:17.869Z,23.31
2023-05-12T10:43:17.847Z,23.32
2023-05-12T10:44:17.835Z,23.33
2023-05-12T10:45:17.982Z,23.33
2023-05-12T10:46:17.900Z,23.30
2023-05-12T10:47:17.819Z,23.28
2023-05-12T10:48:17.816Z,23.26
2023-05-12T10:49:17.843Z,23.26
2023-05-12T10:50:17.865Z,23.29
2023-05-12T10:51:17.844Z,23.31
2023-05-12T10:52:17.873Z,23.32
2023-05-12T10:53:17.898Z,23.32
2023-05-12T10:54:17.916Z,23.35
2023-05-12T10:55:17.969Z,23.39
2023-05-12T10:56:18.310Z,23.41
2023-05-12T10:57:19.276Z,23.42
2023-05-12T10:58:18.303Z,23.43
2023-05-12T10:59:19.560Z,23.43
2023-05-12T11:00:18.584Z,23.44
2023-05-12T11:01:19.491Z,23.42
2023-05-12T11:02:18.704Z,23.39
2023-05-12T11:03:19.887Z,23.38
2023-05-12T11:04:20.475Z,23.40
2023-05-12T11:05:18.769Z,23.43
2023-05-12T11:06:19.348Z,23.46
2023-05-12T11:07:18.979Z,23.50
2023-05-12T11:08:19.800Z,23.52
2023-05-12T11:09:19.972Z,23.54
2023-05-12T11:10:19.132Z,23.55
2023-05-12T11:11:20.038Z,23.57
2023-05-12T11:12:18.823Z,23.58
2023-05-12T11:13:19.070Z,23.59
2023-05-12T11:14:18.921Z,23.60
2023-05-12T11:15:19.087Z,23.61
2023-05-12T11:16:19.052Z,23.61
2023-05-12T11:17:19.067Z,23.61
2023-05-12T11:18:19.128Z,23.62
2023-05-12T11:19:19.173Z,23.62
2023-05-12T11:20:21.179Z,23.62
2023-05-12T11:21:19.263Z,23.62
2023-05-12T11:22:19.630Z,23.62
2023-05-12T11:23:20.357Z,23.63
2023-05-12T11:24:19.409Z,23.63
2023-05-12T11:25:19.594Z,23.62
2023-05-12T11:26:19.502Z,23.64
2023-05-12T11:27:19.535Z,23.63
2023-05-12T11:28:19.570Z,23.62
2023-05-12T11:29:19.618Z,23.63
2023-05-12T11:30:19.685Z,23.62
2023-05-12T11:31:19.777Z,23.62
2023-05-12T11:32:19.768Z,23.63
2023-05-12T11:33:19.811Z,23.62
2023-05-12T11:34:19.875Z,23.62
2023-05-12T11:35:20.223Z,23.61
2023-05-12T11:36:21.549Z,23.60
2023-05-12T11:37:20.022Z,23.59
2023-05-12T11:38:20.942Z,23.59
2023-05-12T11:39:20.104Z,23.60
2023-05-12T11:40:20.728Z,23.59
2023-05-12T11:41:20.196Z,23.59
2023-05-12T11:42:22.159Z,23.59
2023-05-12T11:43:20.232Z,23.58
2023-05-12T11:44:20.226Z,23.58
2023-05-12T11:45:20.361Z,23.58
2023-05-12T11:46:20.245Z,23.57
2023-05-12T11:47:20.197Z,23.56
2023-05-12T11:48:20.201Z,23.55
2023-05-12T11:49:20.153Z,23.55
2023-05-12T11:50:20.135Z,23.54
2023-05-12T11:51:20.121Z,23.55
2023-05-12T11:52:20.202Z,23.53
2023-05-12T11:53:20.099Z,23.55
2023-05-12T11:54:20.087Z,23.54
2023-05-12T11:55:20.433Z,23.53
2023-05-12T11:56:20.058Z,23.53
2023-05-12T11:57:20.051Z,23.53
2023-05-12T11:58:20.035Z,23.52
2023-05-12T11:59:20.030Z,23.51
2023-05-12T12:00:20.012Z,23.50
2023-05-12T12:01:20.003Z,23.49
2023-05-12T12:02:20.071Z,23.48
2023-05-12T12:03:20.092Z,23.48
2023-05-12T12:04:20.057Z,23.47
2023-05-12T12:05:20.121Z,23.47
2023-05-12T12:06:19.958Z,23.46
2023-05-12T12:07:19.937Z,23.46
2023-05-12T12:08:20.895Z,23.46
2023-05-12T12:09:20.058Z,23.46
2023-05-12T12:10:19.904Z,23.46
2023-05-12T12:11:19.903Z,23.45
2023-05-12T12:12:19.875Z,23.45
2023-05-12T12:13:19.864Z,23.45
2023-05-12T12:14:19.851Z,23.45
2023-05-12T12:15:19.932Z,23.45
2023-05-12T12:16:19.894Z,23.44
2023-05-12T12:17:19.898Z,23.45
2023-05-12T12:18:21.794Z,23.44
2023-05-12T12:19:19.959Z,23.44
2023-05-12T12:20:20.002Z,23.43
2023-05-12T12:21:20.057Z,23.43
2023-05-12T12:22:21.271Z,23.43
2023-05-12T12:23:20.272Z,23.43
2023-05-12T12:24:20.537Z,23.42
2023-05-12T12:25:20.577Z,23.42
2023-05-12T12:26:20.279Z,23.42
2023-05-12T12:27:20.320Z,23.42
2023-05-12T12:28:20.356Z,23.42
2023-05-12T12:29:20.402Z,23.42
2023-05-12T12:30:20.449Z,23.41
2023-05-12T12:31:21.498Z,23.42
2023-05-12T12:32:20.581Z,23.41
2023-05-12T12:33:20.833Z,23.41
2023-05-12T12:34:20.681Z,23.41
2023-05-12T12:35:21.010Z,23.40
2023-05-12T12:36:20.791Z,23.41
2023-05-12T12:37:20.856Z,23.40
2023-05-12T12:38:20.917Z,23.40
2023-05-12T12:39:20.954Z,23.41
2023-05-12T12:40:22.420Z,23.40
2023-05-12T12:41:21.042Z,23.40
2023-05-12T12:42:21.973Z,23.40
2023-05-12T12:43:21.175Z,23.40
2023-05-12T12:44:22.260Z,23.40
2023-05-12T12:45:21.339Z,23.39
2023-05-12T12:46:21.296Z,23.39
2023-05-12T12:47:21.329Z,23.39
2023-05-12T12:48:21.368Z,23.39
2023-05-12T12:49:22.281Z,23.39
2023-05-12T12:50:21.520Z,23.38
2023-05-12T12:51:21.873Z,23.38
2023-05-12T12:52:21.616Z,23.38
2023-05-12T12:53:21.679Z,23.38
2023-05-12T12:54:22.567Z,23.38